sensor_id;sensor_type;location;lat;lon;timestamp;temperature;humidity
29003;DHT22;16102;57.138;-2.118;2022-09-12T00:02:02;14.80;99.90
29003;DHT22;16102;57.138;-2.118;2022-09-12T00:04:30;15.10;99.90
29003;DHT22;16102;57.138;-2.118;2022-09-12T00:06:57;14.90;99.90
29003;DHT22;16102;57.138;-2.118;2022-09-12T00:09:24;15.20;99.90
29003;DHT22;16102;57.138;-2.118;2022-09-12T00:11:51;15.30;99.90
29003;DHT22;16102;57.138;-2.118;2022-09-12T00:14:18;15.20;99.90
29003;DHT22;16102;57.138;-2.118;2022-09-12T00:16:45;15.00;99.90
29003;DHT22;16102;57.138;-2.118;2022-09-12T00:19:13;14.90;99.90
29003;DHT22;16102;57.138;-2.118;2022-09-12T00:21:40;14.90;99.90
29003;DHT22;16102;57.138;-2.118;2022-09-12T00:24:09;15.20;99.90
29003;DHT22;16102;57.138;-2.118;2022-09-12T00:26:36;15.10;99.90
29003;DHT22;16102;57.138;-2.118;2022-09-12T00:29:03;15.20;99.90
29003;DHT22;16102;57.138;-2.118;2022-09-12T00:31:30;15.10;99.90
29003;DHT22;16102;57.138;-2.118;2022-09-12T00:33:59;15.00;99.90
29003;DHT22;16102;57.138;-2.118;2022-09-12T00:36:29;15.10;99.90
29003;DHT22;16102;57.138;-2.118;2022-09-12T00:38:56;15.30;99.90
29003;DHT22;16102;57.138;-2.118;2022-09-12T00:41:25;15.10;99.90
29003;DHT22;16102;57.138;-2.118;2022-09-12T00:43:58;15.20;99.90
29003;DHT22;16102;57.138;-2.118;2022-09-12T00:49:02;15.20;99.90
29003;DHT22;16102;57.138;-2.118;2022-09-12T00:51:33;15.10;99.90
29003;DHT22;16102;57.138;-2.118;2022-09-12T00:54:06;15.30;99.90
29003;DHT22;16102;57.138;-2.118;2022-09-12T00:56:35;15.30;99.90
29003;DHT22;16102;57.138;-2.118;2022-09-12T00:59:08;15.50;99.90
29003;DHT22;16102;57.138;-2.118;2022-09-12T01:01:39;15.60;99.90
29003;DHT22;16102;57.138;-2.118;2022-09-12T01:04:09;15.40;99.90
29003;DHT22;16102;57.138;-2.118;2022-09-12T01:06:40;15.40;99.90
29003;DHT22;16102;57.138;-2.118;2022-09-12T01:09:12;15.70;99.90
29003;DHT22;16102;57.138;-2.118;2022-09-12T01:11:41;15.70;99.90
29003;DHT22;16102;57.138;-2.118;2022-09-12T01:14:13;15.60;99.90
29003;DHT22;16102;57.138;-2.118;2022-09-12T01:16:41;15.60;99.90
29003;DHT22;16102;57.138;-2.118;2022-09-12T01:28:30;15.60;99.90
29003;DHT22;16102;57.138;-2.118;2022-09-12T01:33:34;15.50;99.90
29003;DHT22;16102;57.138;-2.118;2022-09-12T01:36:16;15.80;99.90
29003;DHT22;16102;57.138;-2.118;2022-09-12T01:39:09;15.80;99.90
29003;DHT22;16102;57.138;-2.118;2022-09-12T01:41:57;15.60;99.90
29003;DHT22;16102;57.138;-2.118;2022-09-12T01:55:41;15.50;99.90
29003;DHT22;16102;57.138;-2.118;2022-09-12T01:58:21;15.70;99.90
29003;DHT22;16102;57.138;-2.118;2022-09-12T02:03:26;15.80;99.90
29003;DHT22;16102;57.138;-2.118;2022-09-12T02:06:18;15.40;99.90
29003;DHT22;16102;57.138;-2.118;2022-09-12T02:08:50;15.70;99.90
29003;DHT22;16102;57.138;-2.118;2022-09-12T02:11:18;15.40;99.90
29003;DHT22;16102;57.138;-2.118;2022-09-12T02:13:55;15.50;99.90
29003;DHT22;16102;57.138;-2.118;2022-09-12T02:16:31;15.50;99.90
29003;DHT22;16102;57.138;-2.118;2022-09-12T02:19:09;15.50;99.90
29003;DHT22;16102;57.138;-2.118;2022-09-12T02:21:39;15.50;99.90
29003;DHT22;16102;57.138;-2.118;2022-09-12T02:24:11;15.50;99.90
29003;DHT22;16102;57.138;-2.118;2022-09-12T02:26:46;15.80;99.90
29003;DHT22;16102;57.138;-2.118;2022-09-12T02:29:14;15.60;99.90
29003;DHT22;16102;57.138;-2.118;2022-09-12T02:31:46;15.60;99.90
29003;DHT22;16102;57.138;-2.118;2022-09-12T02:37:04;15.60;99.90
29003;DHT22;16102;57.138;-2.118;2022-09-12T02:39:32;15.70;99.90
29003;DHT22;16102;57.138;-2.118;2022-09-12T02:42:01;15.70;99.90
29003;DHT22;16102;57.138;-2.118;2022-09-12T02:44:30;15.70;99.90
29003;DHT22;16102;57.138;-2.118;2022-09-12T02:47:10;15.60;99.90
29003;DHT22;16102;57.138;-2.118;2022-09-12T02:49:38;15.50;99.90
29003;DHT22;16102;57.138;-2.118;2022-09-12T02:52:05;15.70;99.90
29003;DHT22;16102;57.138;-2.118;2022-09-12T02:54:32;15.60;99.90
29003;DHT22;16102;57.138;-2.118;2022-09-12T02:57:00;15.80;99.90
29003;DHT22;16102;57.138;-2.118;2022-09-12T02:59:27;15.80;99.90
29003;DHT22;16102;57.138;-2.118;2022-09-12T03:16:50;15.60;99.90
29003;DHT22;16102;57.138;-2.118;2022-09-12T03:19:49;15.80;99.90
29003;DHT22;16102;57.138;-2.118;2022-09-12T03:22:24;15.60;99.90
29003;DHT22;16102;57.138;-2.118;2022-09-12T03:27:41;15.70;99.90
29003;DHT22;16102;57.138;-2.118;2022-09-12T03:30:11;15.70;99.90
29003;DHT22;16102;57.138;-2.118;2022-09-12T03:32:45;15.50;99.90
29003;DHT22;16102;57.138;-2.118;2022-09-12T03:35:13;15.70;99.90
29003;DHT22;16102;57.138;-2.118;2022-09-12T03:37:46;15.80;99.90
29003;DHT22;16102;57.138;-2.118;2022-09-12T03:40:14;15.80;99.90
29003;DHT22;16102;57.138;-2.118;2022-09-12T03:42:41;15.50;99.90
29003;DHT22;16102;57.138;-2.118;2022-09-12T03:45:09;15.50;99.90
29003;DHT22;16102;57.138;-2.118;2022-09-12T03:47:36;15.40;99.90
29003;DHT22;16102;57.138;-2.118;2022-09-12T03:50:04;15.60;99.90
29003;DHT22;16102;57.138;-2.118;2022-09-12T03:52:32;15.60;99.90
29003;DHT22;16102;57.138;-2.118;2022-09-12T03:54:59;15.40;99.90
29003;DHT22;16102;57.138;-2.118;2022-09-12T03:57:26;15.50;99.90
29003;DHT22;16102;57.138;-2.118;2022-09-12T03:59:53;15.60;99.90
29003;DHT22;16102;57.138;-2.118;2022-09-12T04:02:20;15.40;99.90
29003;DHT22;16102;57.138;-2.118;2022-09-12T04:04:47;15.30;99.90
29003;DHT22;16102;57.138;-2.118;2022-09-12T04:07:15;15.40;99.90
29003;DHT22;16102;57.138;-2.118;2022-09-12T04:09:42;15.60;99.90
29003;DHT22;16102;57.138;-2.118;2022-09-12T04:12:09;15.60;99.90
29003;DHT22;16102;57.138;-2.118;2022-09-12T04:14:37;15.40;99.90
29003;DHT22;16102;57.138;-2.118;2022-09-12T04:17:04;15.50;99.90
29003;DHT22;16102;57.138;-2.118;2022-09-12T04:19:31;15.40;99.90
29003;DHT22;16102;57.138;-2.118;2022-09-12T04:21:58;15.60;99.90
29003;DHT22;16102;57.138;-2.118;2022-09-12T04:24:25;15.60;99.90
29003;DHT22;16102;57.138;-2.118;2022-09-12T04:26:52;15.70;99.90
29003;DHT22;16102;57.138;-2.118;2022-09-12T04:29:21;15.70;99.90
29003;DHT22;16102;57.138;-2.118;2022-09-12T04:31:48;15.50;99.90
29003;DHT22;16102;57.138;-2.118;2022-09-12T04:34:15;15.40;99.90
29003;DHT22;16102;57.138;-2.118;2022-09-12T04:36:42;15.60;99.90
29003;DHT22;16102;57.138;-2.118;2022-09-12T04:39:09;15.20;99.90
29003;DHT22;16102;57.138;-2.118;2022-09-12T04:41:38;15.20;99.90
29003;DHT22;16102;57.138;-2.118;2022-09-12T04:44:09;15.40;99.90
29003;DHT22;16102;57.138;-2.118;2022-09-12T04:46:38;15.40;99.90
29003;DHT22;16102;57.138;-2.118;2022-09-12T04:49:06;15.40;99.90
29003;DHT22;16102;57.138;-2.118;2022-09-12T04:51:35;15.30;99.90
29003;DHT22;16102;57.138;-2.118;2022-09-12T04:54:09;15.30;99.90
29003;DHT22;16102;57.138;-2.118;2022-09-12T04:56:42;15.40;99.90
29003;DHT22;16102;57.138;-2.118;2022-09-12T04:59:10;15.30;99.90
29003;DHT22;16102;57.138;-2.118;2022-09-12T05:01:38;15.10;99.90
29003;DHT22;16102;57.138;-2.118;2022-09-12T05:04:06;15.00;99.90
29003;DHT22;16102;57.138;-2.118;2022-09-12T05:06:35;15.10;99.90
29003;DHT22;16102;57.138;-2.118;2022-09-12T05:09:05;14.80;99.90
29003;DHT22;16102;57.138;-2.118;2022-09-12T05:11:34;14.90;99.90
29003;DHT22;16102;57.138;-2.118;2022-09-12T05:14:23;15.00;99.90
29003;DHT22;16102;57.138;-2.118;2022-09-12T05:16:50;14.80;99.90
29003;DHT22;16102;57.138;-2.118;2022-09-12T05:19:17;14.70;99.90
29003;DHT22;16102;57.138;-2.118;2022-09-12T05:21:44;14.80;99.90
29003;DHT22;16102;57.138;-2.118;2022-09-12T05:24:11;14.70;99.90
29003;DHT22;16102;57.138;-2.118;2022-09-12T05:26:38;14.70;99.90
29003;DHT22;16102;57.138;-2.118;2022-09-12T05:29:05;14.70;99.90
29003;DHT22;16102;57.138;-2.118;2022-09-12T05:31:33;14.80;99.90
29003;DHT22;16102;57.138;-2.118;2022-09-12T05:34:00;14.70;99.90
29003;DHT22;16102;57.138;-2.118;2022-09-12T05:36:30;14.50;99.90
29003;DHT22;16102;57.138;-2.118;2022-09-12T05:38:59;14.80;99.90
29003;DHT22;16102;57.138;-2.118;2022-09-12T05:41:28;14.60;99.90
29003;DHT22;16102;57.138;-2.118;2022-09-12T05:43:58;14.50;99.90
29003;DHT22;16102;57.138;-2.118;2022-09-12T05:46:28;14.50;99.90
29003;DHT22;16102;57.138;-2.118;2022-09-12T05:48:55;14.60;99.90
29003;DHT22;16102;57.138;-2.118;2022-09-12T05:51:25;14.60;99.90
29003;DHT22;16102;57.138;-2.118;2022-09-12T05:53:57;14.60;99.90
29003;DHT22;16102;57.138;-2.118;2022-09-12T05:56:30;14.60;99.90
29003;DHT22;16102;57.138;-2.118;2022-09-12T05:59:02;14.60;99.90
29003;DHT22;16102;57.138;-2.118;2022-09-12T06:01:31;14.40;99.90
29003;DHT22;16102;57.138;-2.118;2022-09-12T06:04:00;14.50;99.90
29003;DHT22;16102;57.138;-2.118;2022-09-12T06:06:29;14.50;99.90
29003;DHT22;16102;57.138;-2.118;2022-09-12T06:08:59;14.50;99.90
29003;DHT22;16102;57.138;-2.118;2022-09-12T06:11:29;14.40;99.90
29003;DHT22;16102;57.138;-2.118;2022-09-12T06:13:57;14.60;99.90
29003;DHT22;16102;57.138;-2.118;2022-09-12T06:16:27;14.40;99.90
29003;DHT22;16102;57.138;-2.118;2022-09-12T06:19:06;14.60;99.90
29003;DHT22;16102;57.138;-2.118;2022-09-12T06:21:33;14.50;99.90
29003;DHT22;16102;57.138;-2.118;2022-09-12T06:24:01;14.30;99.90
29003;DHT22;16102;57.138;-2.118;2022-09-12T06:26:29;14.50;99.90
29003;DHT22;16102;57.138;-2.118;2022-09-12T06:28:57;14.50;99.90
29003;DHT22;16102;57.138;-2.118;2022-09-12T06:31:27;14.50;99.90
29003;DHT22;16102;57.138;-2.118;2022-09-12T06:33:58;14.30;99.90
29003;DHT22;16102;57.138;-2.118;2022-09-12T06:36:28;14.60;99.90
29003;DHT22;16102;57.138;-2.118;2022-09-12T06:39:02;14.60;99.90
29003;DHT22;16102;57.138;-2.118;2022-09-12T06:41:30;14.60;99.90
29003;DHT22;16102;57.138;-2.118;2022-09-12T06:43:58;14.50;99.90
29003;DHT22;16102;57.138;-2.118;2022-09-12T06:46:26;14.40;99.90
29003;DHT22;16102;57.138;-2.118;2022-09-12T06:48:57;14.50;99.90
29003;DHT22;16102;57.138;-2.118;2022-09-12T06:51:26;14.50;99.90
29003;DHT22;16102;57.138;-2.118;2022-09-12T06:53:54;14.60;99.90
29003;DHT22;16102;57.138;-2.118;2022-09-12T06:56:24;14.60;99.90
29003;DHT22;16102;57.138;-2.118;2022-09-12T06:58:54;14.50;99.90
29003;DHT22;16102;57.138;-2.118;2022-09-12T07:01:23;14.80;99.90
29003;DHT22;16102;57.138;-2.118;2022-09-12T07:03:55;14.80;99.90
29003;DHT22;16102;57.138;-2.118;2022-09-12T07:06:24;14.80;99.90
29003;DHT22;16102;57.138;-2.118;2022-09-12T07:08:59;14.80;99.90
29003;DHT22;16102;57.138;-2.118;2022-09-12T07:11:31;14.90;99.90
29003;DHT22;16102;57.138;-2.118;2022-09-12T07:14:00;14.90;99.90
29003;DHT22;16102;57.138;-2.118;2022-09-12T07:16:28;14.80;99.90
29003;DHT22;16102;57.138;-2.118;2022-09-12T07:19:01;14.90;99.90
29003;DHT22;16102;57.138;-2.118;2022-09-12T07:21:29;14.90;99.90
29003;DHT22;16102;57.138;-2.118;2022-09-12T07:23:57;15.00;99.90
29003;DHT22;16102;57.138;-2.118;2022-09-12T07:26:28;15.10;99.90
29003;DHT22;16102;57.138;-2.118;2022-09-12T07:28:56;14.90;99.90
29003;DHT22;16102;57.138;-2.118;2022-09-12T07:31:44;15.00;99.90
29003;DHT22;16102;57.138;-2.118;2022-09-12T07:34:11;15.00;99.90
29003;DHT22;16102;57.138;-2.118;2022-09-12T07:36:38;15.20;99.90
29003;DHT22;16102;57.138;-2.118;2022-09-12T07:39:06;15.00;99.90
29003;DHT22;16102;57.138;-2.118;2022-09-12T07:41:33;15.20;99.90
29003;DHT22;16102;57.138;-2.118;2022-09-12T07:44:02;15.20;99.90
29003;DHT22;16102;57.138;-2.118;2022-09-12T07:46:30;14.90;99.90
29003;DHT22;16102;57.138;-2.118;2022-09-12T07:48:58;15.00;99.90
29003;DHT22;16102;57.138;-2.118;2022-09-12T07:51:28;14.90;99.90
29003;DHT22;16102;57.138;-2.118;2022-09-12T07:53:55;15.00;99.90
29003;DHT22;16102;57.138;-2.118;2022-09-12T07:56:23;15.10;99.90
29003;DHT22;16102;57.138;-2.118;2022-09-12T07:58:56;15.10;99.90
29003;DHT22;16102;57.138;-2.118;2022-09-12T08:01:23;15.20;99.90
29003;DHT22;16102;57.138;-2.118;2022-09-12T08:03:56;15.20;99.90
29003;DHT22;16102;57.138;-2.118;2022-09-12T08:06:24;15.10;99.90
29003;DHT22;16102;57.138;-2.118;2022-09-12T08:08:53;15.20;99.90
29003;DHT22;16102;57.138;-2.118;2022-09-12T08:11:22;15.20;99.90
29003;DHT22;16102;57.138;-2.118;2022-09-12T08:13:49;15.40;99.90
29003;DHT22;16102;57.138;-2.118;2022-09-12T08:16:23;15.40;99.90
29003;DHT22;16102;57.138;-2.118;2022-09-12T08:18:51;15.50;99.90
29003;DHT22;16102;57.138;-2.118;2022-09-12T08:21:21;15.50;99.90
29003;DHT22;16102;57.138;-2.118;2022-09-12T08:23:53;15.60;99.90
29003;DHT22;16102;57.138;-2.118;2022-09-12T08:26:20;15.60;99.90
29003;DHT22;16102;57.138;-2.118;2022-09-12T08:28:47;15.70;99.90
29003;DHT22;16102;57.138;-2.118;2022-09-12T08:31:17;15.80;99.90
29003;DHT22;16102;57.138;-2.118;2022-09-12T08:33:44;15.90;1.00
29003;DHT22;16102;57.138;-2.118;2022-09-12T08:36:16;15.80;7.50
29003;DHT22;16102;57.138;-2.118;2022-09-12T08:38:45;16.10;99.90
29003;DHT22;16102;57.138;-2.118;2022-09-12T08:41:35;16.20;1.00
29003;DHT22;16102;57.138;-2.118;2022-09-12T08:44:25;16.30;99.90
29003;DHT22;16102;57.138;-2.118;2022-09-12T08:49:44;16.60;1.00
29003;DHT22;16102;57.138;-2.118;2022-09-12T08:52:24;16.70;1.00
29003;DHT22;16102;57.138;-2.118;2022-09-12T08:54:53;16.80;1.00
29003;DHT22;16102;57.138;-2.118;2022-09-12T08:57:22;16.70;99.90
29003;DHT22;16102;57.138;-2.118;2022-09-12T08:59:50;16.30;99.90
29003;DHT22;16102;57.138;-2.118;2022-09-12T09:05:10;15.80;1.00
29003;DHT22;16102;57.138;-2.118;2022-09-12T09:10:52;15.60;1.00
29003;DHT22;16102;57.138;-2.118;2022-09-12T09:16:40;15.40;1.00
29003;DHT22;16102;57.138;-2.118;2022-09-12T09:19:26;15.50;1.00
29003;DHT22;16102;57.138;-2.118;2022-09-12T09:21:59;15.40;1.00
29003;DHT22;16102;57.138;-2.118;2022-09-12T09:24:40;15.30;1.00
29003;DHT22;16102;57.138;-2.118;2022-09-12T09:27:22;15.40;57.80
29003;DHT22;16102;57.138;-2.118;2022-09-12T09:30:13;15.30;99.90
29003;DHT22;16102;57.138;-2.118;2022-09-12T09:32:44;15.60;99.90
29003;DHT22;16102;57.138;-2.118;2022-09-12T09:35:42;15.70;99.90
29003;DHT22;16102;57.138;-2.118;2022-09-12T09:43:56;16.00;99.90
29003;DHT22;16102;57.138;-2.118;2022-09-12T09:46:24;16.00;99.90
29003;DHT22;16102;57.138;-2.118;2022-09-12T09:48:53;16.10;92.10
29003;DHT22;16102;57.138;-2.118;2022-09-12T09:51:32;16.30;1.00
29003;DHT22;16102;57.138;-2.118;2022-09-12T09:54:17;16.50;1.00
29003;DHT22;16102;57.138;-2.118;2022-09-12T09:56:46;16.60;1.00
29003;DHT22;16102;57.138;-2.118;2022-09-12T10:01:51;17.00;99.90
29003;DHT22;16102;57.138;-2.118;2022-09-12T10:04:26;17.30;99.90
29003;DHT22;16102;57.138;-2.118;2022-09-12T10:06:56;17.50;99.90
29003;DHT22;16102;57.138;-2.118;2022-09-12T10:09:26;17.50;99.90
29003;DHT22;16102;57.138;-2.118;2022-09-12T10:11:55;17.60;99.90
29003;DHT22;16102;57.138;-2.118;2022-09-12T10:16:54;17.80;47.00
29003;DHT22;16102;57.138;-2.118;2022-09-12T10:19:32;17.90;44.00
29003;DHT22;16102;57.138;-2.118;2022-09-12T10:22:00;18.00;14.40
29003;DHT22;16102;57.138;-2.118;2022-09-12T10:32:27;18.60;78.90
29003;DHT22;16102;57.138;-2.118;2022-09-12T10:35:01;18.50;1.00
29003;DHT22;16102;57.138;-2.118;2022-09-12T10:37:35;18.50;1.00
29003;DHT22;16102;57.138;-2.118;2022-09-12T10:40:05;18.60;1.00
29003;DHT22;16102;57.138;-2.118;2022-09-12T10:42:53;18.50;1.00
29003;DHT22;16102;57.138;-2.118;2022-09-12T10:45:28;18.50;1.00
29003;DHT22;16102;57.138;-2.118;2022-09-12T10:47:57;18.50;1.00
29003;DHT22;16102;57.138;-2.118;2022-09-12T10:50:35;18.70;1.00
29003;DHT22;16102;57.138;-2.118;2022-09-12T10:56:08;18.60;1.00
29003;DHT22;16102;57.138;-2.118;2022-09-12T10:58:54;18.40;1.00
29003;DHT22;16102;57.138;-2.118;2022-09-12T11:04:19;18.30;1.00
29003;DHT22;16102;57.138;-2.118;2022-09-12T11:07:19;18.40;1.00
29003;DHT22;16102;57.138;-2.118;2022-09-12T11:24:35;18.10;1.00
29003;DHT22;16102;57.138;-2.118;2022-09-12T11:32:22;18.90;1.00
29003;DHT22;16102;57.138;-2.118;2022-09-12T11:35:15;19.40;1.00
29003;DHT22;16102;57.138;-2.118;2022-09-12T11:41:01;19.30;1.00
29003;DHT22;16102;57.138;-2.118;2022-09-12T11:43:40;19.20;1.00
29003;DHT22;16102;57.138;-2.118;2022-09-12T11:54:35;19.90;1.00
29003;DHT22;16102;57.138;-2.118;2022-09-12T12:02:54;20.00;1.00
29003;DHT22;16102;57.138;-2.118;2022-09-12T12:05:25;20.70;1.00
29003;DHT22;16102;57.138;-2.118;2022-09-12T12:07:58;20.90;1.00
29003;DHT22;16102;57.138;-2.118;2022-09-12T12:10:44;20.50;99.90
29003;DHT22;16102;57.138;-2.118;2022-09-12T12:15:52;20.00;1.00
29003;DHT22;16102;57.138;-2.118;2022-09-12T12:18:28;20.10;1.00
29003;DHT22;16102;57.138;-2.118;2022-09-12T12:20:57;20.00;1.00
29003;DHT22;16102;57.138;-2.118;2022-09-12T12:24:03;19.80;1.00
29003;DHT22;16102;57.138;-2.118;2022-09-12T12:47:45;18.90;1.00
29003;DHT22;16102;57.138;-2.118;2022-09-12T12:50:21;19.00;1.00
29003;DHT22;16102;57.138;-2.118;2022-09-12T12:52:55;19.20;1.00
29003;DHT22;16102;57.138;-2.118;2022-09-12T12:55:55;19.20;1.00
29003;DHT22;16102;57.138;-2.118;2022-09-12T12:58:34;19.50;1.00
29003;DHT22;16102;57.138;-2.118;2022-09-12T13:01:12;19.40;1.00
29003;DHT22;16102;57.138;-2.118;2022-09-12T13:03:45;19.50;1.00
29003;DHT22;16102;57.138;-2.118;2022-09-12T13:09:04;19.70;1.00
29003;DHT22;16102;57.138;-2.118;2022-09-12T13:11:36;20.10;1.00
29003;DHT22;16102;57.138;-2.118;2022-09-12T13:14:05;20.00;1.00
29003;DHT22;16102;57.138;-2.118;2022-09-12T13:16:50;20.10;1.00
29003;DHT22;16102;57.138;-2.118;2022-09-12T13:19:34;20.10;1.00
29003;DHT22;16102;57.138;-2.118;2022-09-12T13:22:07;20.00;1.00
29003;DHT22;16102;57.138;-2.118;2022-09-12T13:24:42;20.00;1.00
29003;DHT22;16102;57.138;-2.118;2022-09-12T13:27:21;20.10;1.00
29003;DHT22;16102;57.138;-2.118;2022-09-12T13:29:49;20.50;1.00
29003;DHT22;16102;57.138;-2.118;2022-09-12T13:32:17;20.80;1.00
29003;DHT22;16102;57.138;-2.118;2022-09-12T13:37:32;22.00;1.00
29003;DHT22;16102;57.138;-2.118;2022-09-12T13:43:12;23.60;99.90
29003;DHT22;16102;57.138;-2.118;2022-09-12T13:45:45;23.60;99.90
29003;DHT22;16102;57.138;-2.118;2022-09-12T13:48:17;23.30;99.90
29003;DHT22;16102;57.138;-2.118;2022-09-12T13:50:59;23.10;99.90
29003;DHT22;16102;57.138;-2.118;2022-09-12T13:53:39;21.60;99.90
29003;DHT22;16102;57.138;-2.118;2022-09-12T13:56:15;21.20;99.90
29003;DHT22;16102;57.138;-2.118;2022-09-12T13:58:53;20.40;99.90
29003;DHT22;16102;57.138;-2.118;2022-09-12T14:01:24;20.30;99.90
29003;DHT22;16102;57.138;-2.118;2022-09-12T14:03:55;21.10;99.90
29003;DHT22;16102;57.138;-2.118;2022-09-12T14:06:46;21.20;99.90
29003;DHT22;16102;57.138;-2.118;2022-09-12T14:09:23;22.10;99.90
29003;DHT22;16102;57.138;-2.118;2022-09-12T14:11:51;22.10;99.90
29003;DHT22;16102;57.138;-2.118;2022-09-12T14:14:31;21.20;99.90
29003;DHT22;16102;57.138;-2.118;2022-09-12T14:16:59;20.20;99.90
29003;DHT22;16102;57.138;-2.118;2022-09-12T14:19:26;19.50;99.90
29003;DHT22;16102;57.138;-2.118;2022-09-12T14:21:56;19.30;99.90
29003;DHT22;16102;57.138;-2.118;2022-09-12T14:24:23;19.00;99.90
29003;DHT22;16102;57.138;-2.118;2022-09-12T14:26:54;19.00;99.90
29003;DHT22;16102;57.138;-2.118;2022-09-12T14:29:22;19.50;99.90
29003;DHT22;16102;57.138;-2.118;2022-09-12T14:32:03;20.10;99.90
29003;DHT22;16102;57.138;-2.118;2022-09-12T14:34:31;20.00;99.90
29003;DHT22;16102;57.138;-2.118;2022-09-12T14:36:58;20.10;99.90
29003;DHT22;16102;57.138;-2.118;2022-09-12T14:39:42;20.00;99.90
29003;DHT22;16102;57.138;-2.118;2022-09-12T14:42:16;19.40;99.90
29003;DHT22;16102;57.138;-2.118;2022-09-12T14:47:22;19.10;99.90
29003;DHT22;16102;57.138;-2.118;2022-09-12T14:49:50;18.70;99.90
29003;DHT22;16102;57.138;-2.118;2022-09-12T14:52:28;18.40;99.90
29003;DHT22;16102;57.138;-2.118;2022-09-12T14:57:33;18.20;99.90
29003;DHT22;16102;57.138;-2.118;2022-09-12T15:02:37;18.10;99.90
29003;DHT22;16102;57.138;-2.118;2022-09-12T15:07:42;17.90;99.90
29003;DHT22;16102;57.138;-2.118;2022-09-12T15:10:28;17.90;99.90
29003;DHT22;16102;57.138;-2.118;2022-09-12T15:15:38;18.00;99.90
29003;DHT22;16102;57.138;-2.118;2022-09-12T15:18:05;17.90;99.90
29003;DHT22;16102;57.138;-2.118;2022-09-12T15:20:36;18.00;99.90
29003;DHT22;16102;57.138;-2.118;2022-09-12T15:23:09;18.00;99.90
29003;DHT22;16102;57.138;-2.118;2022-09-12T15:25:37;18.20;99.90
29003;DHT22;16102;57.138;-2.118;2022-09-12T15:28:16;18.10;99.90
29003;DHT22;16102;57.138;-2.118;2022-09-12T15:30:44;18.00;99.90
29003;DHT22;16102;57.138;-2.118;2022-09-12T15:33:11;17.80;99.90
29003;DHT22;16102;57.138;-2.118;2022-09-12T15:35:38;17.60;99.90
29003;DHT22;16102;57.138;-2.118;2022-09-12T15:38:05;16.60;99.90
29003;DHT22;16102;57.138;-2.118;2022-09-12T15:40:32;16.20;99.90
29003;DHT22;16102;57.138;-2.118;2022-09-12T15:42:59;16.20;99.90
29003;DHT22;16102;57.138;-2.118;2022-09-12T15:45:29;16.20;99.90
29003;DHT22;16102;57.138;-2.118;2022-09-12T15:47:57;16.10;99.90
29003;DHT22;16102;57.138;-2.118;2022-09-12T15:50:25;16.50;99.90
29003;DHT22;16102;57.138;-2.118;2022-09-12T15:52:54;17.70;99.90
29003;DHT22;16102;57.138;-2.118;2022-09-12T15:55:28;18.80;99.90
29003;DHT22;16102;57.138;-2.118;2022-09-12T15:57:55;19.20;99.90
29003;DHT22;16102;57.138;-2.118;2022-09-12T16:00:23;19.80;99.90
29003;DHT22;16102;57.138;-2.118;2022-09-12T16:02:51;20.30;99.90
29003;DHT22;16102;57.138;-2.118;2022-09-12T16:05:24;21.50;99.90
29003;DHT22;16102;57.138;-2.118;2022-09-12T16:07:53;21.40;99.90
29003;DHT22;16102;57.138;-2.118;2022-09-12T16:10:23;20.90;99.90
29003;DHT22;16102;57.138;-2.118;2022-09-12T16:12:50;19.90;99.90
29003;DHT22;16102;57.138;-2.118;2022-09-12T16:15:20;19.20;99.90
29003;DHT22;16102;57.138;-2.118;2022-09-12T16:17:48;18.80;99.90
29003;DHT22;16102;57.138;-2.118;2022-09-12T16:20:16;19.80;99.90
29003;DHT22;16102;57.138;-2.118;2022-09-12T16:22:44;20.10;99.90
29003;DHT22;16102;57.138;-2.118;2022-09-12T16:25:11;19.70;99.90
29003;DHT22;16102;57.138;-2.118;2022-09-12T16:27:38;18.60;99.90
29003;DHT22;16102;57.138;-2.118;2022-09-12T16:30:07;18.10;99.90
29003;DHT22;16102;57.138;-2.118;2022-09-12T16:32:34;18.10;99.90
29003;DHT22;16102;57.138;-2.118;2022-09-12T16:35:01;18.90;99.90
29003;DHT22;16102;57.138;-2.118;2022-09-12T16:37:28;19.90;99.90
29003;DHT22;16102;57.138;-2.118;2022-09-12T16:39:56;20.30;99.90
29003;DHT22;16102;57.138;-2.118;2022-09-12T16:42:23;20.40;99.90
29003;DHT22;16102;57.138;-2.118;2022-09-12T16:44:50;20.40;99.90
29003;DHT22;16102;57.138;-2.118;2022-09-12T16:47:18;20.00;99.90
29003;DHT22;16102;57.138;-2.118;2022-09-12T16:49:45;20.60;99.90
29003;DHT22;16102;57.138;-2.118;2022-09-12T16:52:12;20.20;99.90
29003;DHT22;16102;57.138;-2.118;2022-09-12T16:54:42;20.70;99.90
29003;DHT22;16102;57.138;-2.118;2022-09-12T16:57:12;20.70;99.90
29003;DHT22;16102;57.138;-2.118;2022-09-12T16:59:39;20.90;99.90
29003;DHT22;16102;57.138;-2.118;2022-09-12T17:02:07;20.60;99.90
29003;DHT22;16102;57.138;-2.118;2022-09-12T17:04:36;21.40;99.90
29003;DHT22;16102;57.138;-2.118;2022-09-12T17:07:03;21.60;99.90
29003;DHT22;16102;57.138;-2.118;2022-09-12T17:09:30;21.40;99.90
29003;DHT22;16102;57.138;-2.118;2022-09-12T17:11:56;20.70;99.90
29003;DHT22;16102;57.138;-2.118;2022-09-12T17:14:24;20.90;99.90
29003;DHT22;16102;57.138;-2.118;2022-09-12T17:16:51;20.90;99.90
29003;DHT22;16102;57.138;-2.118;2022-09-12T17:19:21;20.90;99.90
29003;DHT22;16102;57.138;-2.118;2022-09-12T17:21:48;21.10;99.90
29003;DHT22;16102;57.138;-2.118;2022-09-12T17:24:16;21.20;99.90
29003;DHT22;16102;57.138;-2.118;2022-09-12T17:26:44;21.30;99.90
29003;DHT22;16102;57.138;-2.118;2022-09-12T17:29:12;21.50;99.90
29003;DHT22;16102;57.138;-2.118;2022-09-12T17:31:43;21.10;99.90
29003;DHT22;16102;57.138;-2.118;2022-09-12T17:34:11;20.70;99.90
29003;DHT22;16102;57.138;-2.118;2022-09-12T17:36:41;20.10;99.90
29003;DHT22;16102;57.138;-2.118;2022-09-12T17:39:11;19.80;99.90
29003;DHT22;16102;57.138;-2.118;2022-09-12T17:41:38;19.30;99.90
29003;DHT22;16102;57.138;-2.118;2022-09-12T17:44:11;18.80;99.90
29003;DHT22;16102;57.138;-2.118;2022-09-12T17:46:38;18.50;99.90
29003;DHT22;16102;57.138;-2.118;2022-09-12T17:49:14;18.40;99.90
29003;DHT22;16102;57.138;-2.118;2022-09-12T17:51:42;18.30;99.90
29003;DHT22;16102;57.138;-2.118;2022-09-12T17:54:11;18.00;99.90
29003;DHT22;16102;57.138;-2.118;2022-09-12T17:56:39;17.70;99.90
29003;DHT22;16102;57.138;-2.118;2022-09-12T17:59:08;17.50;99.90
29003;DHT22;16102;57.138;-2.118;2022-09-12T18:01:37;17.50;99.90
29003;DHT22;16102;57.138;-2.118;2022-09-12T18:04:23;17.30;99.90
29003;DHT22;16102;57.138;-2.118;2022-09-12T18:06:50;17.30;99.90
29003;DHT22;16102;57.138;-2.118;2022-09-12T18:09:20;17.00;99.90
29003;DHT22;16102;57.138;-2.118;2022-09-12T18:11:49;16.90;99.90
29003;DHT22;16102;57.138;-2.118;2022-09-12T18:14:17;17.00;99.90
29003;DHT22;16102;57.138;-2.118;2022-09-12T18:16:45;16.90;99.90
29003;DHT22;16102;57.138;-2.118;2022-09-12T18:19:12;16.90;99.90
29003;DHT22;16102;57.138;-2.118;2022-09-12T18:21:39;16.90;99.90
29003;DHT22;16102;57.138;-2.118;2022-09-12T18:24:07;16.90;99.90
29003;DHT22;16102;57.138;-2.118;2022-09-12T18:26:35;16.70;99.90
29003;DHT22;16102;57.138;-2.118;2022-09-12T18:29:02;16.50;99.90
29003;DHT22;16102;57.138;-2.118;2022-09-12T18:31:30;16.40;99.90